createdAt,value
2023-01-17T00:02:01.983Z,99979.00
2023-01-17T00:04:31.667Z,99972.06
2023-01-17T00:06:59.075Z,99970.38
2023-01-17T00:09:26.557Z,99975.63
2023-01-17T00:11:54.471Z,99983.06
2023-01-17T00:14:22.476Z,99979.47
2023-01-17T00:16:50.025Z,99977.66
2023-01-17T00:19:17.899Z,99979.50
2023-01-17T00:21:47.750Z,99974.09
2023-01-17T00:24:15.693Z,99977.47
2023-01-17T00:26:48.870Z,99979.66
2023-01-17T00:29:16.314Z,99978.44
2023-01-17T00:31:43.891Z,99984.91
2023-01-17T00:34:11.374Z,99980.19
2023-01-17T00:36:38.788Z,99979.16
2023-01-17T00:39:07.694Z,99977.97
2023-01-17T00:41:35.126Z,99978.44
2023-01-17T00:44:02.640Z,99986.22
2023-01-17T00:46:30.170Z,99983.34
2023-01-17T00:48:57.645Z,99977.78
2023-01-17T00:51:26.398Z,99972.22
2023-01-17T00:53:53.830Z,99970.84
2023-01-17T00:56:22.919Z,99973.25
2023-01-17T00:58:50.438Z,99974.25
2023-01-17T01:01:18.073Z,99973.59
2023-01-17T01:03:45.568Z,99972.72
2023-01-17T01:06:13.038Z,99973.22
2023-01-17T01:08:40.579Z,99975.06
2023-01-17T01:11:09.474Z,99977.44
2023-01-17T01:13:38.386Z,99976.28
2023-01-17T01:16:06.243Z,99971.34
2023-01-17T01:18:33.714Z,99970.69
2023-01-17T01:21:03.452Z,99967.13
2023-01-17T01:23:30.944Z,99963.25
2023-01-17T01:25:58.402Z,99973.75
2023-01-17T01:28:26.471Z,99973.38
2023-01-17T01:30:55.937Z,99973.53
2023-01-17T01:33:23.509Z,99976.44
2023-01-17T01:35:52.442Z,99978.94
2023-01-17T01:38:21.971Z,99971.53
2023-01-17T01:40:50.577Z,99968.50
2023-01-17T01:43:21.222Z,99964.81
2023-01-17T01:45:53.061Z,99976.09
2023-01-17T01:48:33.867Z,99967.34
2023-01-17T01:51:06.342Z,99967.00
2023-01-17T01:53:38.118Z,99969.66
2023-01-17T01:56:09.928Z,99969.88
2023-01-17T01:58:38.753Z,99972.41
2023-01-17T02:01:08.355Z,99970.16
2023-01-17T02:03:40.007Z,99972.91
2023-01-17T02:06:19.279Z,99980.16
2023-01-17T02:08:46.822Z,99965.13
2023-01-17T02:11:14.566Z,99976.97
2023-01-17T02:13:43.169Z,99976.28
2023-01-17T02:16:19.746Z,99982.38
2023-01-17T02:18:59.611Z,99989.09
2023-01-17T02:21:31.862Z,99979.31
2023-01-17T02:24:40.398Z,99981.34
2023-01-17T02:27:20.028Z,99981.34
2023-01-17T02:30:13.802Z,99990.47
2023-01-17T02:32:59.958Z,99992.13
2023-01-17T02:35:34.203Z,99999.53
2023-01-17T02:38:10.659Z,99991.97
2023-01-17T02:40:42.888Z,99989.56
2023-01-17T02:43:14.866Z,99999.56
2023-01-17T02:45:42.534Z,99998.88
2023-01-17T02:48:15.331Z,99996.19
2023-01-17T02:51:00.627Z,99997.16
2023-01-17T02:53:39.514Z,99999.91
2023-01-17T02:56:20.842Z,100003.94
2023-01-17T02:59:06.971Z,99999.81
2023-01-17T03:01:44.273Z,100010.66
2023-01-17T03:04:18.533Z,100000.72
2023-01-17T03:06:52.081Z,99994.22
2023-01-17T03:09:21.055Z,100006.28
2023-01-17T03:11:49.095Z,100010.69
2023-01-17T03:14:17.016Z,100007.50
2023-01-17T03:16:45.255Z,100005.94
2023-01-17T03:19:14.298Z,100005.47
2023-01-17T03:21:42.445Z,100009.31
2023-01-17T03:24:10.035Z,100008.84
2023-01-17T03:26:37.767Z,100010.16
2023-01-17T03:29:05.302Z,100017.47
2023-01-17T03:31:32.783Z,100019.66
2023-01-17T03:34:00.279Z,100025.75
2023-01-17T03:36:29.303Z,100017.97
2023-01-17T03:38:56.768Z,100026.09
2023-01-17T03:41:24.261Z,100018.47
2023-01-17T03:43:51.718Z,100028.75
2023-01-17T03:46:21.197Z,100029.09
2023-01-17T03:48:50.037Z,100031.00
2023-01-17T03:51:18.296Z,100022.69
2023-01-17T03:53:47.707Z,100019.31
2023-01-17T03:56:15.234Z,100026.25
2023-01-17T03:58:42.862Z,100028.97
2023-01-17T04:01:10.975Z,100035.91
2023-01-17T04:03:38.788Z,100028.75
2023-01-17T04:06:06.810Z,100033.19
2023-01-17T04:08:34.363Z,100024.88
2023-01-17T04:11:03.535Z,100025.09
2023-01-17T04:13:31.207Z,100025.94
2023-01-17T04:15:58.880Z,100021.56
2023-01-17T04:18:26.625Z,100032.69
2023-01-17T04:20:54.965Z,100031.00
2023-01-17T04:23:22.450Z,100031.00
2023-01-17T04:25:49.944Z,100036.25
2023-01-17T04:28:18.953Z,100042.16
2023-01-17T04:30:46.585Z,100044.03
2023-01-17T04:33:14.332Z,100040.47
2023-01-17T04:35:41.813Z,100045.66
2023-01-17T04:38:09.355Z,100047.22
2023-01-17T04:40:36.930Z,100051.31
2023-01-17T04:43:04.418Z,100054.69
2023-01-17T04:45:34.219Z,100046.72
2023-01-17T04:48:03.996Z,100049.13
2023-01-17T04:50:31.675Z,100054.44
2023-01-17T04:53:00.194Z,100056.78
2023-01-17T04:55:27.768Z,100052.41
2023-01-17T04:57:55.240Z,100048.84
2023-01-17T05:00:24.148Z,100050.53
2023-01-17T05:02:53.362Z,100037.53
2023-01-17T05:05:20.865Z,100042.44
2023-01-17T05:07:54.230Z,100047.50
2023-01-17T05:10:23.207Z,100047.50
2023-01-17T05:12:55.204Z,100046.16
2023-01-17T05:15:23.148Z,100055.31
2023-01-17T05:17:53.520Z,100060.38
2023-01-17T05:20:23.101Z,100055.63
2023-01-17T05:22:53.083Z,100059.69
2023-01-17T05:25:20.679Z,100060.38
2023-01-17T05:27:48.504Z,100059.50
2023-01-17T05:30:17.339Z,100045.34
2023-01-17T05:32:48.761Z,100055.13
2023-01-17T05:35:19.880Z,100048.88
2023-01-17T05:37:48.857Z,100047.03
2023-01-17T05:40:17.061Z,100049.19
2023-01-17T05:42:48.258Z,100052.63
2023-01-17T05:45:17.327Z,100050.28
2023-01-17T05:47:45.429Z,100051.91
2023-01-17T05:50:15.028Z,100050.56
2023-01-17T05:52:50.020Z,100048.53
2023-01-17T05:55:21.436Z,100044.63
2023-01-17T05:57:49.419Z,100050.13
2023-01-17T06:00:17.892Z,100049.63
2023-01-17T06:02:45.823Z,100048.91
2023-01-17T06:05:14.137Z,100049.56
2023-01-17T06:07:45.637Z,100051.75
2023-01-17T06:10:14.371Z,100049.53
2023-01-17T06:12:43.175Z,100051.22
2023-01-17T06:15:11.941Z,100055.63
2023-01-17T06:17:39.632Z,100051.06
2023-01-17T06:20:09.439Z,100060.59
2023-01-17T06:22:37.024Z,100061.38
2023-01-17T06:25:06.680Z,100065.13
2023-01-17T06:27:34.402Z,100061.22
2023-01-17T06:30:03.118Z,100074.16
2023-01-17T06:32:30.572Z,100065.38
2023-01-17T06:34:58.039Z,100068.91
2023-01-17T06:37:25.507Z,100076.91
2023-01-17T06:39:52.984Z,100075.03
2023-01-17T06:42:22.096Z,100075.09
2023-01-17T06:44:50.253Z,100066.44
2023-01-17T06:47:17.867Z,100067.34
2023-01-17T06:49:45.372Z,100060.53
2023-01-17T06:52:13.406Z,100057.03
2023-01-17T06:54:40.949Z,100063.44
2023-01-17T06:57:08.471Z,100067.50
2023-01-17T06:59:37.400Z,100067.81
2023-01-17T07:02:04.865Z,100063.22
2023-01-17T07:04:35.038Z,100060.69
2023-01-17T07:07:03.255Z,100064.91
2023-01-17T07:09:30.696Z,100068.59
2023-01-17T07:11:58.635Z,100073.75
2023-01-17T07:14:26.361Z,100061.50
2023-01-17T07:16:55.568Z,100063.56
2023-01-17T07:19:23.551Z,100068.16
2023-01-17T07:21:52.195Z,100067.16
2023-01-17T07:24:21.286Z,100058.81
2023-01-17T07:26:49.076Z,100065.84
2023-01-17T07:29:16.701Z,100067.16
2023-01-17T07:31:44.586Z,100060.97
2023-01-17T07:34:13.601Z,100063.19
2023-01-17T07:36:41.306Z,100062.88
2023-01-17T07:39:10.431Z,100057.66
2023-01-17T07:41:38.056Z,100058.00
2023-01-17T07:44:05.718Z,100054.59
2023-01-17T07:46:33.203Z,100060.75
2023-01-17T07:49:01.111Z,100061.28
2023-01-17T07:51:30.538Z,100054.19
2023-01-17T07:53:58.351Z,100062.13
2023-01-17T07:56:26.443Z,100061.94
2023-01-17T07:58:53.971Z,100059.75
2023-01-17T08:01:21.700Z,100056.13
2023-01-17T08:03:51.593Z,100056.34
2023-01-17T08:06:21.354Z,100055.13
2023-01-17T08:08:50.656Z,100053.00
2023-01-17T08:11:18.262Z,100056.22
2023-01-17T08:13:45.731Z,100059.75
2023-01-17T08:16:13.670Z,100060.13
2023-01-17T08:18:41.227Z,100053.00
2023-01-17T08:21:14.075Z,100054.19
2023-01-17T08:23:41.647Z,100060.34
2023-01-17T08:26:10.996Z,100058.38
2023-01-17T08:28:38.628Z,100058.69
2023-01-17T08:31:10.136Z,100058.38
2023-01-17T08:33:38.087Z,100061.75
2023-01-17T08:36:06.195Z,100057.81
2023-01-17T08:38:34.164Z,100058.03
2023-01-17T08:41:01.861Z,100053.50
2023-01-17T08:43:31.044Z,100051.63
2023-01-17T08:45:58.683Z,100056.13
2023-01-17T08:48:26.582Z,100056.19
2023-01-17T08:50:54.091Z,100060.59
2023-01-17T08:53:22.177Z,100050.63
2023-01-17T08:55:49.663Z,100060.66
2023-01-17T08:58:17.355Z,100054.50
2023-01-17T09:00:46.570Z,100054.16
2023-01-17T09:03:14.607Z,100047.59
2023-01-17T09:05:42.301Z,100053.16
2023-01-17T09:08:09.805Z,100055.69
2023-01-17T09:10:37.516Z,100053.28
2023-01-17T09:13:06.724Z,100055.13
2023-01-17T09:15:34.222Z,100047.59
2023-01-17T09:18:03.185Z,100046.91
2023-01-17T09:20:30.683Z,100050.28
2023-01-17T09:22:58.220Z,100054.16
2023-01-17T09:25:25.695Z,100060.75
2023-01-17T09:27:53.552Z,100048.91
2023-01-17T09:30:22.069Z,100048.41
2023-01-17T09:32:52.986Z,100047.06
2023-01-17T09:35:21.980Z,100052.63
2023-01-17T09:37:50.144Z,100045.53
2023-01-17T09:40:20.320Z,100046.06
2023-01-17T09:42:52.110Z,100037.59
2023-01-17T09:45:20.773Z,100047.09
2023-01-17T09:47:50.677Z,100041.16
2023-01-17T09:50:27.669Z,100040.50
2023-01-17T09:52:58.743Z,100036.78
2023-01-17T09:55:28.578Z,100044.53
2023-01-17T09:58:01.370Z,100035.09
2023-01-17T10:00:52.919Z,100036.13
2023-01-17T10:03:42.771Z,100037.81
2023-01-17T10:06:39.744Z,100034.59
2023-01-17T10:09:41.092Z,100036.44
2023-01-17T10:12:26.502Z,100031.03
2023-01-17T10:15:09.328Z,100030.38
2023-01-17T10:17:46.682Z,100030.03
2023-01-17T10:20:32.224Z,100035.78
2023-01-17T10:23:14.355Z,100036.31
2023-01-17T10:25:48.122Z,100023.09
2023-01-17T10:28:19.033Z,100039.63
2023-01-17T10:30:49.427Z,100034.91
2023-01-17T10:33:20.547Z,100031.53
2023-01-17T10:36:08.006Z,100031.91
2023-01-17T10:38:37.809Z,100029.00
2023-01-17T10:41:14.436Z,100022.09
2023-01-17T10:43:48.839Z,100021.69
2023-01-17T10:46:21.966Z,100025.09
2023-01-17T10:48:55.381Z,100025.09
2023-01-17T10:51:47.398Z,100022.22
2023-01-17T10:54:28.472Z,100024.25
2023-01-17T10:56:58.511Z,100025.25
2023-01-17T10:59:30.370Z,100013.56
2023-01-17T11:01:58.278Z,100019.47
2023-01-17T11:04:35.353Z,100019.66
2023-01-17T11:07:14.350Z,100007.63
2023-01-17T11:09:44.092Z,100007.16
2023-01-17T11:12:27.218Z,100006.66
2023-01-17T11:15:16.133Z,100005.34
2023-01-17T11:17:47.808Z,99998.59
2023-01-17T11:20:19.299Z,100006.47
2023-01-17T11:23:00.632Z,99999.59
2023-01-17T11:25:30.710Z,99994.84
2023-01-17T11:28:02.780Z,99991.28
2023-01-17T11:30:30.421Z,99982.22
2023-01-17T11:32:59.377Z,99986.75
2023-01-17T11:35:29.370Z,99984.06
2023-01-17T11:38:15.087Z,99983.38
2023-01-17T11:40:44.334Z,99986.94
2023-01-17T11:43:22.276Z,99987.09
2023-01-17T11:46:05.694Z,99989.97
2023-01-17T11:48:35.756Z,99986.09
2023-01-17T11:51:04.728Z,99991.84
2023-01-17T11:53:36.731Z,99989.47
2023-01-17T11:56:08.295Z,99996.22
2023-01-17T11:58:41.617Z,99991.19
2023-01-17T12:01:35.375Z,99996.19
2023-01-17T12:04:21.848Z,99986.59
2023-01-17T12:07:12.693Z,99988.47
2023-01-17T12:09:46.783Z,99990.28
2023-01-17T12:12:21.486Z,99987.97
2023-01-17T12:15:02.157Z,99987.78
2023-01-17T12:17:45.299Z,99988.44
2023-01-17T12:20:24.793Z,99978.16
2023-01-17T12:23:12.689Z,99979.00
2023-01-17T12:26:01.921Z,99976.66
2023-01-17T12:29:05.204Z,99973.59
2023-01-17T12:31:39.096Z,99981.84
2023-01-17T12:34:22.049Z,99989.47
2023-01-17T12:36:55.234Z,99988.47
2023-01-17T12:39:29.199Z,99994.72
2023-01-17T12:42:03.784Z,100000.06
2023-01-17T12:44:45.130Z,100008.16
2023-01-17T12:47:15.943Z,100002.06
2023-01-17T12:49:50.685Z,100000.63
2023-01-17T12:52:25.365Z,100007.50
2023-01-17T12:54:58.430Z,100001.91
2023-01-17T12:57:32.311Z,100000.78
2023-01-17T13:00:05.449Z,99994.50
2023-01-17T13:02:38.977Z,99998.22
2023-01-17T13:05:12.211Z,100001.56
2023-01-17T13:07:46.215Z,99992.66
2023-01-17T13:10:24.492Z,99996.88
2023-01-17T13:12:54.622Z,99986.72
2023-01-17T13:15:25.709Z,99991.44
2023-01-17T13:18:04.823Z,99990.47
2023-01-17T13:20:46.765Z,99996.00
2023-01-17T13:23:27.038Z,99992.47
2023-01-17T13:25:55.815Z,99991.09
2023-01-17T13:28:35.667Z,99994.53
2023-01-17T13:31:29.920Z,99987.56
2023-01-17T13:34:55.115Z,99994.16
2023-01-17T13:37:46.595Z,99976.25
2023-01-17T13:40:35.342Z,99979.16
2023-01-17T13:43:05.015Z,99988.25
2023-01-17T13:45:34.821Z,99982.66
2023-01-17T13:48:26.053Z,99986.94
2023-01-17T13:50:56.626Z,99992.13
2023-01-17T13:53:54.115Z,99977.94
2023-01-17T13:56:31.270Z,99984.69
2023-01-17T13:59:04.704Z,99974.91
2023-01-17T14:01:52.790Z,99980.44
2023-01-17T14:04:25.541Z,99983.84
2023-01-17T14:06:59.287Z,99984.19
2023-01-17T14:09:31.157Z,99965.44
2023-01-17T14:12:06.192Z,99977.25
2023-01-17T14:15:00.745Z,99972.53
2023-01-17T14:17:54.551Z,99967.63
2023-01-17T14:20:52.246Z,99970.16
2023-01-17T14:23:35.801Z,99972.53
2023-01-17T14:26:28.472Z,99969.81
2023-01-17T14:28:58.702Z,99969.19
2023-01-17T14:31:28.611Z,99968.34
2023-01-17T14:34:11.284Z,99971.91
2023-01-17T14:36:39.877Z,99969.53
2023-01-17T14:39:22.660Z,99969.56
2023-01-17T14:41:52.311Z,99974.53
2023-01-17T14:44:20.808Z,99970.06
2023-01-17T14:46:49.443Z,99968.63
2023-01-17T14:49:22.731Z,99964.09
2023-01-17T14:52:00.644Z,99960.03
2023-01-17T14:54:30.324Z,99965.78
2023-01-17T14:57:16.095Z,99963.78
2023-01-17T14:59:44.815Z,99966.44
2023-01-17T15:02:17.080Z,99965.44
2023-01-17T15:04:53.665Z,99968.63
2023-01-17T15:07:22.932Z,99965.78
2023-01-17T15:09:52.284Z,99969.84
2023-01-17T15:12:19.769Z,99966.31
2023-01-17T15:14:47.679Z,99972.69
2023-01-17T15:17:20.065Z,99973.88
2023-01-17T15:19:53.373Z,99970.16
2023-01-17T15:22:21.275Z,99985.53
2023-01-17T15:24:52.394Z,99979.81
2023-01-17T15:27:20.013Z,99967.75
2023-01-17T15:29:48.919Z,99973.00
2023-01-17T15:32:20.467Z,99982.13
2023-01-17T15:34:50.035Z,99978.44
2023-01-17T15:37:30.021Z,99964.09
2023-01-17T15:40:15.506Z,99977.94
2023-01-17T15:42:44.885Z,99982.66
2023-01-17T15:45:17.488Z,99988.03
2023-01-17T15:47:46.604Z,99971.34
2023-01-17T15:50:28.018Z,99983.50
2023-01-17T15:52:57.880Z,99975.63
2023-01-17T15:55:31.801Z,99978.25
2023-01-17T15:57:59.535Z,99977.94
2023-01-17T16:00:29.815Z,99981.63
2023-01-17T16:02:58.520Z,99977.25
2023-01-17T16:05:37.700Z,99964.03
2023-01-17T16:08:33.174Z,99974.53
2023-01-17T16:11:04.750Z,99974.22
2023-01-17T16:13:35.798Z,99977.06
2023-01-17T16:16:16.326Z,99979.78
2023-01-17T16:18:46.111Z,99980.97
2023-01-17T16:21:26.916Z,99977.25
2023-01-17T16:23:55.994Z,99975.75
2023-01-17T16:26:25.927Z,99964.72
2023-01-17T16:28:53.933Z,99968.47
2023-01-17T16:31:22.953Z,99967.44
2023-01-17T16:33:51.014Z,99960.31
2023-01-17T16:36:19.805Z,99961.38
2023-01-17T16:38:50.231Z,99957.00
2023-01-17T16:41:18.491Z,99963.72
2023-01-17T16:43:58.360Z,99966.25
2023-01-17T16:46:27.779Z,99960.19
2023-01-17T16:48:56.694Z,99962.38
2023-01-17T16:51:24.564Z,99953.63
2023-01-17T16:53:52.632Z,99964.75
2023-01-17T16:56:20.995Z,99970.16
2023-01-17T16:58:52.252Z,99957.31
2023-01-17T17:01:19.784Z,99960.88
2023-01-17T17:03:47.300Z,99963.59
2023-01-17T17:06:15.348Z,99955.97
2023-01-17T17:08:43.416Z,99964.06
2023-01-17T17:11:13.651Z,99957.53
2023-01-17T17:13:42.626Z,99970.31
2023-01-17T17:16:14.263Z,99965.41
2023-01-17T17:18:42.043Z,99961.91
2023-01-17T17:21:10.110Z,99963.41
2023-01-17T17:23:39.274Z,99964.94
2023-01-17T17:26:07.785Z,99969.13
2023-01-17T17:28:35.775Z,99960.03
2023-01-17T17:31:06.271Z,99956.50
2023-01-17T17:33:35.326Z,99958.66
2023-01-17T17:36:05.274Z,99969.13
2023-01-17T17:38:32.923Z,99959.16
2023-01-17T17:41:09.292Z,99965.78
2023-01-17T17:43:39.255Z,99948.53
2023-01-17T17:46:06.934Z,99950.06
2023-01-17T17:48:36.699Z,99945.03
2023-01-17T17:51:05.520Z,99949.94
2023-01-17T17:53:33.115Z,99943.47
2023-01-17T17:56:07.257Z,99941.09
2023-01-17T17:58:35.119Z,99947.72
2023-01-17T18:01:04.340Z,99943.50
2023-01-17T18:03:32.239Z,99946.19
2023-01-17T18:06:06.872Z,99942.47
2023-01-17T18:08:36.074Z,99933.34
2023-01-17T18:11:05.306Z,99933.53
2023-01-17T18:13:34.208Z,99929.81
2023-01-17T18:16:04.206Z,99932.34
2023-01-17T18:18:31.836Z,99937.75
2023-01-17T18:21:08.802Z,99944.69
2023-01-17T18:23:38.363Z,99935.03
2023-01-17T18:26:06.353Z,99933.19
2023-01-17T18:28:33.969Z,99942.66
2023-01-17T18:31:07.985Z,99942.13
2023-01-17T18:33:36.074Z,99943.81
2023-01-17T18:36:08.965Z,99944.88
2023-01-17T18:38:37.560Z,99946.22
2023-01-17T18:41:06.448Z,99938.75
2023-01-17T18:43:33.978Z,99948.41
2023-01-17T18:46:02.119Z,99945.19
2023-01-17T18:48:29.758Z,99948.22
2023-01-17T18:50:58.632Z,99945.75
2023-01-17T18:53:29.516Z,99948.41
2023-01-17T18:55:58.969Z,99953.94
2023-01-17T18:58:27.392Z,99953.66
2023-01-17T19:00:55.035Z,99957.03
2023-01-17T19:03:27.172Z,99953.66
2023-01-17T19:05:54.977Z,99955.84
2023-01-17T19:08:22.520Z,99956.00
2023-01-17T19:10:51.549Z,99962.94
2023-01-17T19:13:19.299Z,99969.38
2023-01-17T19:15:46.756Z,99960.72
2023-01-17T19:18:14.764Z,99957.38
2023-01-17T19:20:42.270Z,99966.13
2023-01-17T19:23:10.402Z,99961.06
2023-01-17T19:25:38.080Z,99958.03
2023-01-17T19:28:07.275Z,99963.47
2023-01-17T19:30:34.721Z,99958.91
2023-01-17T19:33:02.205Z,99963.09
2023-01-17T19:35:29.784Z,99962.78
2023-01-17T19:37:58.049Z,99957.69
2023-01-17T19:40:25.914Z,99960.19
2023-01-17T19:42:53.398Z,99958.03
2023-01-17T19:45:22.995Z,99957.34
2023-01-17T19:47:50.579Z,99958.34
2023-01-17T19:50:18.173Z,99957.16
2023-01-17T19:52:45.677Z,99956.44
2023-01-17T19:55:13.338Z,99958.53
2023-01-17T19:57:40.856Z,99962.41
2023-01-17T20:00:12.608Z,99949.72
2023-01-17T20:02:41.536Z,99948.53
2023-01-17T20:05:09.516Z,99946.84
2023-01-17T20:07:37.009Z,99948.53
2023-01-17T20:10:05.243Z,99948.72
2023-01-17T20:12:32.721Z,99948.03
2023-01-17T20:15:00.171Z,99946.53
2023-01-17T20:17:27.655Z,99948.38
2023-01-17T20:19:56.710Z,99955.81
2023-01-17T20:22:24.250Z,99960.16
2023-01-17T20:24:51.800Z,99944.78
2023-01-17T20:27:19.327Z,99951.69
2023-01-17T20:29:46.779Z,99959.97
2023-01-17T20:32:14.383Z,99946.13
2023-01-17T20:34:44.040Z,99943.41
2023-01-17T20:37:14.183Z,99944.09
2023-01-17T20:39:41.661Z,99941.19
2023-01-17T20:42:09.072Z,99949.50
2023-01-17T20:44:36.520Z,99945.91
2023-01-17T20:47:04.005Z,99948.47
2023-01-17T20:49:31.470Z,99939.50
2023-01-17T20:51:58.984Z,99944.97
2023-01-17T20:54:28.005Z,99941.22
2023-01-17T20:56:55.544Z,99946.47
2023-01-17T20:59:23.100Z,99944.41
2023-01-17T21:01:51.299Z,99945.94
2023-01-17T21:04:19.055Z,99947.31
2023-01-17T21:06:46.526Z,99941.56
2023-01-17T21:09:15.157Z,99943.09
2023-01-17T21:11:44.102Z,99946.09
2023-01-17T21:14:11.594Z,99949.56
2023-01-17T21:16:39.319Z,99943.69
2023-01-17T21:19:07.913Z,99936.63
2023-01-17T21:21:35.411Z,99931.94
2023-01-17T21:24:02.897Z,99931.56
2023-01-17T21:26:30.339Z,99926.50
2023-01-17T21:28:59.563Z,99933.94
2023-01-17T21:31:28.999Z,99925.00
2023-01-17T21:33:58.499Z,99930.28
2023-01-17T21:36:28.071Z,99917.31
2023-01-17T21:38:57.258Z,99935.00
2023-01-17T21:41:26.259Z,99924.00
2023-01-17T21:44:00.366Z,99918.97
2023-01-17T21:46:29.371Z,99921.81
2023-01-17T21:48:57.404Z,99922.16
2023-01-17T21:51:25.563Z,99913.19
2023-01-17T21:53:53.210Z,99922.31
2023-01-17T21:56:20.857Z,99914.06
2023-01-17T21:58:50.052Z,99921.16
2023-01-17T22:01:20.110Z,99923.84
2023-01-17T22:03:49.521Z,99922.00
2023-01-17T22:06:17.189Z,99914.53
2023-01-17T22:08:45.168Z,99917.75
2023-01-17T22:11:14.874Z,99909.00
2023-01-17T22:13:44.452Z,99911.72
2023-01-17T22:16:12.231Z,99911.81
2023-01-17T22:18:42.667Z,99911.16
2023-01-17T22:21:13.204Z,99905.28
2023-01-17T22:23:45.291Z,99906.50
2023-01-17T22:26:12.938Z,99902.56
2023-01-17T22:28:41.092Z,99904.78
2023-01-17T22:31:09.993Z,99908.78
2023-01-17T22:33:38.244Z,99902.94
2023-01-17T22:36:08.606Z,99900.91
2023-01-17T22:38:36.523Z,99907.63
2023-01-17T22:41:05.774Z,99902.75
2023-01-17T22:43:33.198Z,99899.41
2023-01-17T22:46:00.768Z,99913.06
2023-01-17T22:48:30.069Z,99907.78
2023-01-17T22:50:58.157Z,99903.97
2023-01-17T22:53:27.650Z,99907.66
2023-01-17T22:56:02.058Z,99910.84
2023-01-17T22:58:30.515Z,99917.09
2023-01-17T23:01:04.851Z,99916.41
2023-01-17T23:03:32.900Z,99925.19
2023-01-17T23:06:11.695Z,99918.47
2023-01-17T23:08:42.164Z,99921.50
2023-01-17T23:11:21.858Z,99925.19
2023-01-17T23:13:49.330Z,99925.53
2023-01-17T23:16:16.787Z,99926.34
2023-01-17T23:18:44.489Z,99924.19
2023-01-17T23:21:11.942Z,99928.06
2023-01-17T23:23:40.862Z,99929.88
2023-01-17T23:26:08.349Z,99926.59
2023-01-17T23:28:35.865Z,99926.50
2023-01-17T23:31:03.621Z,99922.50
2023-01-17T23:33:31.173Z,99927.50
2023-01-17T23:35:58.629Z,99921.09
2023-01-17T23:38:26.113Z,99915.44
2023-01-17T23:41:00.653Z,99923.84
2023-01-17T23:43:28.071Z,99919.91
2023-01-17T23:45:55.476Z,99922.69
2023-01-17T23:48:24.091Z,99925.69
2023-01-17T23:50:52.511Z,99923.72
2023-01-17T23:53:21.184Z,99924.56
2023-01-17T23:55:50.183Z,99924.56
2023-01-17T23:58:21.031Z,99937.34
